Página principal
METAR-TAF:

METAR-TAF

Aeroportos :

Matam, Senegal

latitude: 15-39N, longitude: 013-15W, altura: 15 m

Observação actual do tempo

O boletim foi feito há 41 minutos, às 05:00 UTC
Vento calmo
Temperatura 31°C
Humidade 63%
Pressão 1009 hPa
Visibilidade 10 km ou mais
sem nuvens abaixo de 1500 metros e sem cumulonimbus

METAR: GOSM 230500Z 00000KT CAVOK 31/23 Q1009

Hora: 05:41 (05:41 UTC)


TAF: em falta

Observações e previsões do tempo de mais de 4000 aeroportos (mensagens METAR e TAF).

As estações disponíveis são os pontos amarelos e vermelhos sobre o mapa.

Mova o rato sobre o mapa para ver o nome da estação.

Depois clique no ponto para visualizar as observações e previsões meteorológicas.

Para alterar o mapa : clique nos botões verdes com uma cruz preta para aumentar o zoom; no botão verde com uma pitada de zoom; ou nas setas verdes para mapas adjacentes.


METAR-TAF: